Time;durP1;ratioP1;P1;durP2;ratioP2;P2;SDS_P1;SDS_P2;PMS_P1;PMS_P2;Temp;Humidity;BMP_temperature;BMP_pressure;BME280_temperature;BME280_humidity;BME280_pressure;Samples;Min_cycle;Max_cycle;Signal;HPM_P1;HPM_P2
2021/10/22 00:02:15;;;;;;;36.55;15.70;;;;;;;13.29;57.51;97305.63;4869775;29;19928;-83
2021/10/22 00:04:43;;;;;;;36.38;17.15;;;;;;;13.38;57.33;97299.81;4881338;29;20041;-86
2021/10/22 00:07:09;;;;;;;40.95;16.48;;;;;;;13.50;57.51;97310.47;4881534;29;20055;-90
2021/10/22 00:09:38;;;;;;;32.08;15.73;;;;;;;13.31;57.19;97275.03;4880351;29;20623;-85
2021/10/22 00:12:05;;;;;;;30.58;13.90;;;;;;;13.33;57.13;97280.94;4879944;29;20048;-84
2021/10/22 00:14:31;;;;;;;40.80;16.70;;;;;;;13.40;57.20;97286.47;4870839;29;20427;-85
2021/10/22 00:16:57;;;;;;;36.60;15.97;;;;;;;13.51;57.05;97319.50;4881410;29;20056;-85
2021/10/22 00:19:23;;;;;;;39.20;16.73;;;;;;;13.46;57.53;97319.84;4881958;29;20085;-90
2021/10/22 00:21:49;;;;;;;31.75;15.43;;;;;;;13.37;57.11;97320.97;4882195;29;20415;-84
2021/10/22 00:24:15;;;;;;;37.45;15.77;;;;;;;13.52;57.36;97330.09;4882356;29;20718;-84
2021/10/22 00:26:43;;;;;;;42.80;16.40;;;;;;;13.31;57.08;97288.75;4882244;29;20151;-85
2021/10/22 00:29:09;;;;;;;44.73;16.23;;;;;;;13.55;57.38;97309.34;4864401;29;20045;-85
2021/10/22 00:31:35;;;;;;;41.90;16.23;;;;;;;13.42;57.26;97281.41;4863023;29;20041;-84
2021/10/22 00:34:01;;;;;;;36.10;14.73;;;;;;;13.25;57.21;97273.84;4847804;29;20120;-86
2021/10/22 00:36:27;;;;;;;39.47;16.67;;;;;;;13.43;57.50;97298.66;4877512;29;20484;-85
2021/10/22 00:38:56;;;;;;;43.75;17.77;;;;;;;13.45;57.69;97323.78;4880932;29;20127;-84
2021/10/22 00:41:23;;;;;;;35.90;16.13;;;;;;;13.39;57.41;97306.88;4880119;29;20607;-83
2021/10/22 00:43:50;;;;;;;37.15;16.58;;;;;;;13.42;57.70;97299.84;4860807;29;20064;-89
2021/10/22 00:46:16;;;;;;;36.15;16.17;;;;;;;13.39;57.70;97337.06;4867914;29;20518;-85
2021/10/22 00:48:44;;;;;;;36.03;16.08;;;;;;;13.39;57.51;97337.84;4878390;29;20084;-85
2021/10/22 00:51:14;;;;;;;51.83;19.80;;;;;;;13.34;57.72;97327.22;4832098;29;20049;-84
2021/10/22 00:53:41;;;;;;;37.28;16.13;;;;;;;13.35;57.74;97328.78;4876493;29;20074;-88
2021/10/22 00:56:11;;;;;;;40.92;17.42;;;;;;;13.41;57.79;97331.97;4863147;29;20147;-85
2021/10/22 00:58:40;;;;;;;38.65;16.70;;;;;;;13.42;57.72;97325.31;4878451;29;20060;-85
2021/10/22 01:01:09;;;;;;;39.13;16.73;;;;;;;13.35;57.55;97325.28;4861080;29;20454;-85
2021/10/22 01:03:35;;;;;;;;;;;;;;;13.44;57.81;97313.94;4851983;29;20089;-85
2021/10/22 01:06:02;;;;;;;35.83;15.45;;;;;;;13.40;57.64;97309.22;4827809;29;20573;-84
2021/10/22 01:08:30;;;;;;;35.33;16.02;;;;;;;13.37;57.89;97300.97;4858440;29;20049;-87
2021/10/22 01:10:58;;;;;;;37.90;16.80;;;;;;;13.38;57.77;97319.81;4858896;29;20471;-85
2021/10/22 01:13:25;;;;;;;40.65;16.75;;;;;;;13.42;57.89;97305.31;4858800;29;20097;-84
2021/10/22 01:15:51;;;;;;;47.75;18.33;;;;;;;13.38;57.61;97308.03;4828469;29;20191;-84
2021/10/22 01:18:17;;;;;;;36.20;16.85;;;;;;;13.40;57.82;97309.22;4858594;29;20144;-84
2021/10/22 01:20:44;;;;;;;38.17;16.40;;;;;;;13.34;57.51;97274.28;4814698;29;20045;-84
2021/10/22 01:23:13;;;;;;;36.30;16.25;;;;;;;13.24;57.73;97284.00;4841362;29;20145;-86
2021/10/22 01:25:39;;;;;;;36.38;16.55;;;;;;;13.35;58.05;97304.09;4840871;29;20427;-91
2021/10/22 01:28:08;;;;;;;42.17;16.73;;;;;;;13.30;58.24;97303.66;4844653;29;20046;-89
2021/10/22 01:30:36;;;;;;;34.78;16.20;;;;;;;13.27;57.93;97299.72;4859143;29;20144;-83
2021/10/22 01:33:06;;;;;;;41.83;16.75;;;;;;;13.29;57.96;97305.63;4858111;29;20063;-90
2021/10/22 01:35:33;;;;;;;35.67;17.30;;;;;;;13.28;58.04;97306.00;4828222;29;20045;-85
2021/10/22 01:38:05;;;;;;;40.53;17.63;;;;;;;13.22;58.19;97291.81;4818517;29;20074;-84
2021/10/22 01:40:31;;;;;;;41.83;17.63;;;;;;;13.27;58.44;97327.16;4877611;29;20045;-84
2021/10/22 01:42:57;;;;;;;42.13;18.13;;;;;;;13.26;58.46;97330.28;4862947;29;20053;-84
2021/10/22 01:45:24;;;;;;;35.33;17.00;;;;;;;12.97;58.37;97272.41;4879572;29;20105;-85
2021/10/22 01:47:54;;;;;;;42.35;18.02;;;;;;;13.01;58.33;97291.63;4832468;29;20056;-87
2021/10/22 01:50:20;;;;;;;44.08;18.10;;;;;;;13.25;58.38;97324.00;4832422;29;20053;-84
2021/10/22 01:52:46;;;;;;;43.55;17.90;;;;;;;13.31;58.46;97325.25;4876334;29;20510;-83
2021/10/22 01:55:12;;;;;;;35.65;17.67;;;;;;;13.26;58.56;97324.78;4877245;29;20518;-83
2021/10/22 01:57:38;;;;;;;39.23;17.63;;;;;;;13.29;58.36;97335.00;4824350;29;20050;-86
2021/10/22 02:00:05;;;;;;;39.15;17.60;;;;;;;13.16;58.49;97312.53;4840091;29;20061;-84
2021/10/22 02:02:39;;;;;;;42.17;18.23;;;;;;;13.25;58.29;97304.03;4846784;29;20052;-84
2021/10/22 02:05:06;;;;;;;39.45;18.25;;;;;;;13.22;58.39;97307.50;4842997;29;20431;-84
2021/10/22 02:07:34;;;;;;;39.08;17.60;;;;;;;13.34;58.41;97327.22;4875604;29;20044;-90
2021/10/22 02:10:01;;;;;;;44.50;17.80;;;;;;;13.32;58.16;97313.09;4877144;29;20063;-84
2021/10/22 02:12:28;;;;;;;;;;;;;;;13.27;58.18;97320.88;4876954;29;20589;-85
2021/10/22 02:14:56;;;;;;;39.50;17.85;;;;;;;13.27;58.45;97321.66;4860627;29;20043;-84
2021/10/22 02:17:22;;;;;;;35.80;17.65;;;;;;;13.25;58.57;97309.50;4858339;29;20181;-84
2021/10/22 02:19:49;;;;;;;42.75;17.83;;;;;;;13.15;58.40;97298.03;4843527;29;20103;-84
2021/10/22 02:22:15;;;;;;;38.33;18.08;;;;;;;13.11;58.42;97288.19;4860229;29;20132;-84
2021/10/22 02:24:44;;;;;;;39.33;17.55;;;;;;;13.23;58.49;97320.81;4866857;29;20056;-88
2021/10/22 02:27:12;;;;;;;50.50;18.52;;;;;;;13.26;58.55;97325.56;4861890;29;20051;-85
2021/10/22 02:29:38;;;;;;;48.92;18.73;;;;;;;13.19;58.59;97311.78;4877906;29;20547;-84
2021/10/22 02:32:05;;;;;;;42.20;19.00;;;;;;;13.20;58.82;97310.59;4862103;29;20041;-85
2021/10/22 02:34:32;;;;;;;45.85;18.67;;;;;;;13.25;58.78;97312.25;4877771;29;20200;-84
2021/10/22 02:36:59;;;;;;;40.00;18.20;;;;;;;13.30;58.70;97320.13;4893736;29;20048;-84
2021/10/22 02:39:25;;;;;;;41.88;17.42;;;;;;;13.29;58.55;97324.03;4878590;29;20392;-85
2021/10/22 02:41:51;;;;;;;38.67;17.33;;;;;;;13.24;58.76;97329.84;4894305;29;20037;-84
2021/10/22 02:44:18;;;;;;;37.88;18.17;;;;;;;13.17;58.69;97322.34;4896647;29;20045;-84
2021/10/22 02:46:44;;;;;;;37.25;18.63;;;;;;;13.22;58.80;97330.22;4886835;29;20057;-84
2021/10/22 02:49:10;;;;;;;39.42;17.23;;;;;;;13.28;58.62;97347.94;4892919;29;20052;-85
2021/10/22 02:51:36;;;;;;;40.28;19.30;;;;;;;13.19;58.87;97328.25;4896355;29;20041;-88
2021/10/22 02:54:02;;;;;;;47.58;18.45;;;;;;;13.33;58.93;97355.03;4895781;29;20037;-84
2021/10/22 02:56:29;;;;;;;44.33;18.53;;;;;;;13.21;58.58;97323.16;4896982;29;20043;-84
2021/10/22 02:58:56;;;;;;;38.03;18.60;;;;;;;13.26;58.71;97325.56;4884544;29;20395;-84
2021/10/22 03:01:22;;;;;;;44.50;18.87;;;;;;;13.29;58.59;97341.28;4878510;29;20056;-83
2021/10/22 03:03:50;;;;;;;38.47;18.80;;;;;;;13.23;58.81;97320.81;4897661;29;20044;-84
2021/10/22 03:06:16;;;;;;;44.83;19.00;;;;;;;13.08;58.82;97299.94;4877081;29;20459;-84
2021/10/22 03:08:44;;;;;;;42.15;17.90;;;;;;;13.34;58.65;97329.16;4878614;29;20093;-84
2021/10/22 03:11:10;;;;;;;40.03;18.27;;;;;;;13.22;58.84;97307.50;4891531;29;20525;-84
2021/10/22 03:13:37;;;;;;;45.58;19.60;;;;;;;13.30;58.92;97320.91;4879143;29;20135;-84
2021/10/22 03:16:03;;;;;;;40.78;18.63;;;;;;;13.23;58.87;97307.09;4897740;29;20048;-85
2021/10/22 03:18:30;;;;;;;35.97;18.05;;;;;;;13.07;58.84;97298.34;4895705;29;20482;-86
2021/10/22 03:20:56;;;;;;;38.00;18.33;;;;;;;13.29;58.96;97324.81;4895243;29;20037;-85
2021/10/22 03:23:24;;;;;;;46.22;18.48;;;;;;;13.26;59.07;97317.34;4894965;29;20460;-84
2021/10/22 03:25:50;;;;;;;42.20;19.13;;;;;;;13.02;59.14;97268.53;4878390;29;20047;-84
2021/10/22 03:28:17;;;;;;;41.53;18.02;;;;;;;13.19;59.02;97298.06;4878295;29;20053;-85
2021/10/22 03:30:43;;;;;;;36.13;15.45;;;;;;;13.26;58.91;97306.38;4882645;29;20071;-83
2021/10/22 03:33:11;;;;;;;41.92;18.65;;;;;;;13.27;59.14;97304.41;4895509;29;20064;-90
2021/10/22 03:35:37;;;;;;;42.50;18.77;;;;;;;13.24;59.14;97302.41;4859748;29;20045;-84
2021/10/22 03:38:04;;;;;;;36.43;16.63;;;;;;;13.20;58.86;97299.63;4893941;29;20538;-84
2021/10/22 03:40:31;;;;;;;51.08;19.23;;;;;;;13.23;59.21;97303.56;4886569;29;20296;-88
2021/10/22 03:42:58;;;;;;;;;;;;;;;13.25;59.05;97324.00;4898123;29;20044;-88
2021/10/22 03:45:26;;;;;;;46.25;18.08;;;;;;;13.25;59.19;97318.53;4894372;29;19931;-85
2021/10/22 03:47:54;;;;;;;42.40;17.65;;;;;;;13.04;59.19;97288.13;4895104;29;20104;-90
2021/10/22 03:50:20;;;;;;;;;;;;;;;13.19;59.33;97314.53;4897638;29;20040;-85
2021/10/22 03:52:46;;;;;;;36.72;18.45;;;;;;;13.11;59.58;97296.41;4896596;29;20415;-86
2021/10/22 03:55:13;;;;;;;41.20;17.50;;;;;;;13.04;59.41;97296.34;4879562;29;20076;-84
2021/10/22 03:57:41;;;;;;;40.13;18.88;;;;;;;13.09;59.47;97305.03;4879306;29;20033;-90
2021/10/22 04:00:08;;;;;;;51.42;19.70;;;;;;;13.13;59.36;97310.53;4895823;29;20045;-87
2021/10/22 04:02:41;;;;;;;40.92;19.48;;;;;;;13.08;59.57;97297.97;4895712;29;20113;-88
2021/10/22 04:05:11;;;;;;;45.22;19.10;;;;;;;13.04;59.54;97299.88;4897813;29;20051;-90
2021/10/22 04:07:39;;;;;;;44.80;19.13;;;;;;;13.07;59.95;97306.56;4877183;29;20507;-88
2021/10/22 04:10:07;;;;;;;;;;;;;;;13.05;59.89;97312.44;4902338;29;20039;-85
2021/10/22 04:12:33;;;;;;;38.08;18.67;;;;;;;12.86;60.03;97291.50;4915942;29;20400;-85
2021/10/22 04:15:00;;;;;;;38.80;19.08;;;;;;;12.97;60.09;97321.75;4872395;29;20037;-86
2021/10/22 04:17:29;;;;;;;47.22;20.88;;;;;;;12.99;60.41;97316.69;4898717;29;20111;-83
2021/10/22 04:19:56;;;;;;;39.20;19.63;;;;;;;12.83;60.40;97305.97;4901293;29;20065;-83
2021/10/22 04:22:23;;;;;;;44.25;19.77;;;;;;;12.91;60.41;97320.53;4910212;29;20408;-84
2021/10/22 04:24:49;;;;;;;44.75;20.13;;;;;;;12.99;60.27;97335.09;4898154;29;20048;-83
2021/10/22 04:27:15;;;;;;;49.33;19.48;;;;;;;13.01;60.35;97327.28;4897447;29;20048;-84
2021/10/22 04:29:42;;;;;;;45.78;18.90;;;;;;;12.94;60.30;97320.56;4900113;29;20040;-85
2021/10/22 04:32:08;;;;;;;47.37;19.67;;;;;;;13.02;60.19;97324.16;4895346;29;20044;-79
2021/10/22 04:34:34;;;;;;;49.40;19.80;;;;;;;13.02;60.25;97315.16;4900627;29;20036;-87
2021/10/22 04:37:47;;;;;;;45.93;18.60;;;;;;;13.12;61.03;97319.94;4898429;29;20044;-72
2021/10/22 04:42:41;;;;;;;42.40;18.35;;;;;;;13.23;59.64;97315.34;4895731;29;20052;-76
2021/10/22 04:45:09;;;;;;;43.03;20.40;;;;;;;13.11;59.95;97315.59;4898334;29;20088;-76
2021/10/22 04:47:40;;;;;;;44.65;20.35;;;;;;;13.01;60.38;97316.31;4899193;29;20068;-75
2021/10/22 04:50:09;;;;;;;45.10;19.42;;;;;;;12.94;60.51;97320.56;4899904;29;20513;-76
2021/10/22 04:52:36;;;;;;;45.05;20.05;;;;;;;12.96;60.71;97327.63;4899480;29;20040;-76
2021/10/22 04:55:06;;;;;;;44.97;22.30;;;;;;;12.92;60.84;97338.56;4899117;29;20055;-93
2021/10/22 04:57:32;;;;;;;50.60;20.23;;;;;;;12.91;60.87;97334.22;4899334;29;20040;-76
2021/10/22 04:59:58;;;;;;;42.00;20.33;;;;;;;12.88;61.00;97335.78;4900536;29;20096;-76
2021/10/22 05:02:24;;;;;;;43.63;19.75;;;;;;;12.86;61.13;97337.31;4901689;29;20052;-75
2021/10/22 05:04:51;;;;;;;45.00;19.13;;;;;;;12.90;60.96;97340.88;4898839;29;20071;-86
2021/10/22 05:07:18;;;;;;;47.60;20.05;;;;;;;12.94;61.06;97345.22;4899019;29;20084;-75
2021/10/22 05:09:45;;;;;;;46.17;20.02;;;;;;;13.00;60.84;97339.41;4900978;29;20078;-87
2021/10/22 05:12:11;;;;;;;46.42;21.02;;;;;;;13.06;60.59;97346.94;4900246;29;20053;-76
2021/10/22 05:14:38;;;;;;;57.63;21.73;;;;;;;13.14;60.57;97353.25;4900190;29;20426;-78
2021/10/22 05:17:04;;;;;;;72.13;22.73;;;;;;;13.17;60.34;97338.78;4900756;29;20044;-75
2021/10/22 05:19:31;;;;;;;58.50;23.23;;;;;;;13.27;60.16;97349.09;4900127;29;20049;-76
2021/10/22 05:21:57;;;;;;;55.78;23.45;;;;;;;13.35;60.15;97349.97;4901416;29;20096;-94
2021/10/22 05:24:23;;;;;;;68.30;23.13;;;;;;;13.40;59.70;97363.31;4900849;29;20059;-86
2021/10/22 05:26:50;;;;;;;59.90;22.63;;;;;;;13.45;59.44;97348.47;4900302;29;20048;-76
2021/10/22 05:29:18;;;;;;;45.50;19.60;;;;;;;13.54;59.39;97349.72;4899313;29;20532;-94
2021/10/22 05:31:44;;;;;;;59.47;21.75;;;;;;;13.59;59.16;97349.38;4901543;29;20052;-82
2021/10/22 05:34:11;;;;;;;47.88;18.85;;;;;;;13.68;59.33;97343.56;4903849;29;20040;-75
2021/10/22 05:36:38;;;;;;;57.57;20.10;;;;;;;13.65;59.38;97344.31;4906728;29;20514;-84
2021/10/22 05:39:04;;;;;;;;;;;;;;;13.68;59.44;97359.25;4907184;29;20053;-78
2021/10/22 05:41:30;;;;;;;48.50;18.13;;;;;;;13.68;59.35;97351.78;4903714;29;19979;-75
2021/10/22 05:43:56;;;;;;;52.35;18.52;;;;;;;13.70;59.57;97348.66;4907620;29;20051;-77
2021/10/22 05:46:22;;;;;;;63.90;20.08;;;;;;;13.68;59.37;97356.50;4906322;29;20040;-85
2021/10/22 05:48:49;;;;;;;68.97;19.93;;;;;;;13.63;59.14;97358.41;4907688;29;20108;-76
2021/10/22 05:51:15;;;;;;;43.83;19.50;;;;;;;13.68;59.19;97362.78;4904035;29;20048;-81
2021/10/22 05:53:41;;;;;;;56.03;19.08;;;;;;;13.66;59.15;97353.34;4905661;29;20041;-76
2021/10/22 05:56:08;;;;;;;45.28;17.88;;;;;;;13.74;59.10;97377.72;4908202;29;20084;-80
2021/10/22 05:58:35;;;;;;;48.70;19.55;;;;;;;13.55;58.92;97354.03;4907410;29;20071;-76
2021/10/22 06:01:01;;;;;;;;;;;;;;;13.63;59.21;97374.09;4905625;29;20143;-81
2021/10/22 06:03:28;;;;;;;33.47;16.70;;;;;;;13.58;59.39;97369.75;4904329;29;20024;-75
2021/10/22 06:05:55;;;;;;;47.03;16.30;;;;;;;13.74;59.06;97382.41;4906875;29;20135;-76
2021/10/22 06:08:23;;;;;;;43.58;15.93;;;;;;;13.79;58.91;97387.56;4905623;29;20037;-77
2021/10/22 06:10:49;;;;;;;39.22;16.65;;;;;;;13.84;59.32;97389.94;4905541;29;20098;-79
2021/10/22 06:13:17;;;;;;;41.97;18.20;;;;;;;13.83;59.21;97391.91;4905317;29;20024;-79
2021/10/22 06:15:43;;;;;;;44.63;17.13;;;;;;;13.75;59.26;97398.50;4906886;29;20052;-77
2021/10/22 06:18:11;;;;;;;39.45;16.30;;;;;;;13.67;59.48;97399.63;4904950;29;20107;-77
2021/10/22 06:20:46;;;;;;;39.33;15.55;;;;;;;13.60;59.01;97405.06;4904584;29;20104;-77
2021/10/22 06:25:58;;;;;;;35.28;14.38;;;;;;;13.69;58.00;97399.25;4906161;29;20133;-77
2021/10/22 06:28:24;;;;;;;66.05;15.68;;;;;;;13.73;57.96;97409.09;4904324;29;20148;-75
2021/10/22 06:30:51;;;;;;;32.90;13.57;;;;;;;13.76;57.38;97413.81;4904339;29;20072;-80
2021/10/22 06:33:17;;;;;;;37.10;13.85;;;;;;;13.88;57.33;97417.44;4906265;29;20037;-77
2021/10/22 06:35:45;;;;;;;34.83;13.43;;;;;;;13.81;56.44;97394.25;4906391;29;20040;-77
2021/10/22 06:38:11;;;;;;;30.08;12.13;;;;;;;13.84;55.91;97403.66;4905075;29;20537;-79
2021/10/22 06:40:42;;;;;;;30.33;12.70;;;;;;;13.89;55.95;97408.81;4906418;29;20036;-78
2021/10/22 06:43:09;;;;;;;29.20;12.00;;;;;;;13.92;56.04;97412.75;4909826;29;20072;-77
2021/10/22 06:45:36;;;;;;;20.85;9.45;;;;;;;13.85;55.36;97416.25;4908161;29;20120;-76
2021/10/22 06:48:02;;;;;;;23.63;10.67;;;;;;;13.88;55.89;97426.47;4909987;29;20154;-85
2021/10/22 06:50:29;;;;;;;20.60;9.10;;;;;;;13.89;55.22;97413.53;4909781;29;20040;-77
2021/10/22 06:52:55;;;;;;;20.05;10.75;;;;;;;13.98;55.73;97424.97;4907169;29;20045;-77
2021/10/22 06:55:22;;;;;;;22.27;9.13;;;;;;;13.87;55.44;97435.84;4901407;29;20123;-81
2021/10/22 06:57:48;;;;;;;27.75;9.07;;;;;;;13.81;55.14;97432.69;4899150;29;20123;-92
2021/10/22 07:00:16;;;;;;;26.00;8.93;;;;;;;13.76;55.13;97451.47;4897260;29;20044;-88
2021/10/22 07:02:49;;;;;;;20.00;8.95;;;;;;;13.76;55.21;97441.28;4898229;29;20067;-78
2021/10/22 07:07:56;;;;;;;27.30;7.70;;;;;;;13.75;53.66;97441.66;4898769;29;20075;-78
2021/10/22 07:10:23;;;;;;;17.17;7.75;;;;;;;13.83;53.32;97455.06;4898273;29;20069;-73
2021/10/22 07:12:49;;;;;;;23.70;7.30;;;;;;;13.88;52.92;97450.41;4895762;29;20064;-95
2021/10/22 07:15:17;;;;;;;16.23;6.35;;;;;;;13.86;52.98;97457.03;4896988;29;20081;-76
2021/10/22 07:17:45;;;;;;;16.08;6.82;;;;;;;13.93;53.00;97456.31;4880648;29;20048;-76
2021/10/22 07:20:12;;;;;;;21.38;6.88;;;;;;;13.92;52.47;97456.72;4897375;29;20055;-76
2021/10/22 07:22:51;;;;;;;16.25;7.15;;;;;;;13.96;52.42;97461.03;4897466;29;20051;-92
2021/10/22 07:25:19;;;;;;;14.23;6.40;;;;;;;13.96;51.72;97480.28;4897331;29;20048;-95
2021/10/22 07:27:46;;;;;;;20.02;6.50;;;;;;;13.99;51.82;97492.47;4897022;29;20101;-76
2021/10/22 07:30:12;;;;;;;;;;;;;;;13.85;50.90;97482.94;4897839;29;20573;-78
2021/10/22 07:32:38;;;;;;;8.73;4.57;;;;;;;13.76;51.76;97487.94;4896821;29;19924;-82
2021/10/22 07:35:05;;;;;;;19.73;4.75;;;;;;;13.59;51.76;97485.84;4897758;29;20036;-76
2021/10/22 07:37:31;;;;;;;;;;;;;;;13.57;51.86;97496.41;4897854;29;20056;-75
2021/10/22 07:39:58;;;;;;;10.07;4.47;;;;;;;13.50;52.39;97488.09;4901356;29;20018;-76
2021/10/22 07:42:25;;;;;;;12.70;4.22;;;;;;;13.58;51.62;97496.03;4903523;29;20048;-89
2021/10/22 07:45:01;;;;;;;20.30;3.85;;;;;;;13.57;51.00;97482.66;4902026;29;20040;-93
2021/10/22 07:47:28;;;;;;;9.75;4.47;;;;;;;13.58;50.50;97496.03;4900199;29;20422;-75
2021/10/22 07:49:55;;;;;;;13.60;4.22;;;;;;;13.54;50.84;97475.19;4901422;29;20092;-76
2021/10/22 07:52:23;;;;;;;12.88;3.78;;;;;;;13.62;49.73;97491.34;4901800;29;20041;-76
2021/10/22 07:54:54;;;;;;;9.10;3.17;;;;;;;13.71;49.64;97509.47;4903971;29;20072;-93
2021/10/22 07:57:23;;;;;;;15.38;3.80;;;;;;;13.74;50.10;97498.53;4905641;29;20414;-89
2021/10/22 07:59:50;;;;;;;10.55;4.00;;;;;;;13.76;49.73;97485.22;4907352;29;20053;-77
2021/10/22 08:02:19;;;;;;;17.35;3.72;;;;;;;13.81;49.58;97493.09;4906237;29;20044;-77
2021/10/22 08:04:47;;;;;;;11.73;2.92;;;;;;;13.83;49.14;97501.75;4908046;29;20136;-76
2021/10/22 08:07:21;;;;;;;17.38;3.33;;;;;;;13.83;49.05;97499.00;4906965;29;20386;-85
2021/10/22 08:09:49;;;;;;;7.90;2.92;;;;;;;13.87;48.21;97493.53;4902040;29;20056;-83
2021/10/22 08:12:17;;;;;;;10.75;2.97;;;;;;;13.88;47.93;97503.38;4899823;29;20048;-77
2021/10/22 08:14:45;;;;;;;19.13;3.80;;;;;;;13.89;48.94;97485.72;4899767;29;20040;-74
2021/10/22 08:17:13;;;;;;;9.82;2.60;;;;;;;13.99;47.69;97503.47;4899343;29;20585;-74
2021/10/22 08:19:40;;;;;;;14.55;2.60;;;;;;;14.07;47.84;97511.38;4898002;29;20502;-74
2021/10/22 08:22:26;;;;;;;12.18;1.85;;;;;;;14.00;46.58;97496.78;4899377;29;20100;-73
2021/10/22 08:25:00;;;;;;;14.43;2.30;;;;;;;14.06;46.34;97514.50;4899864;29;20037;-73
2021/10/22 08:27:34;;;;;;;12.15;2.13;;;;;;;14.12;47.13;97517.69;4900718;29;20045;-76
2021/10/22 08:30:05;;;;;;;6.60;1.95;;;;;;;14.11;46.48;97508.66;4900156;29;20043;-75
2021/10/22 08:32:33;;;;;;;7.03;2.00;;;;;;;14.26;47.07;97517.78;4899411;29;20083;-73
2021/10/22 08:35:01;;;;;;;19.00;3.40;;;;;;;14.48;47.13;97519.53;4899642;29;20045;-75
2021/10/22 08:37:27;;;;;;;13.73;2.60;;;;;;;14.56;46.44;97528.63;4899375;29;20048;-75
2021/10/22 08:39:55;;;;;;;8.05;2.28;;;;;;;14.54;46.50;97511.75;4898943;29;20514;-87
2021/10/22 08:42:23;;;;;;;8.32;2.40;;;;;;;14.56;45.69;97521.16;4899182;29;20075;-86
2021/10/22 08:44:56;;;;;;;9.68;2.45;;;;;;;14.49;44.20;97510.09;4899054;29;20040;-75
2021/10/22 08:47:29;;;;;;;7.07;2.58;;;;;;;14.54;44.85;97533.75;4898749;29;20139;-78
2021/10/22 08:50:08;;;;;;;6.65;2.15;;;;;;;14.49;44.55;97526.59;4898344;29;20052;-74
2021/10/22 08:52:35;;;;;;;18.80;2.60;;;;;;;14.44;43.92;97512.44;4898979;29;20048;-74
2021/10/22 08:55:07;;;;;;;;;;;;;;;14.41;44.83;97524.97;4898412;29;20055;-78
2021/10/22 08:57:37;;;;;;;8.50;2.40;;;;;;;14.42;45.39;97514.78;4899022;29;19974;-84
2021/10/22 09:00:05;;;;;;;8.15;3.28;;;;;;;14.46;45.74;97527.38;4899057;29;20173;-80
2021/10/22 09:02:32;;;;;;;14.88;3.78;;;;;;;14.60;45.89;97537.69;4899465;29;20057;-73
2021/10/22 09:05:14;;;;;;;12.75;2.88;;;;;;;14.59;45.50;97502.34;4899094;29;20083;-79
2021/10/22 09:07:47;;;;;;;9.73;2.40;;;;;;;14.56;45.15;97510.19;4898916;29;20041;-86
2021/10/22 09:10:23;;;;;;;9.60;3.28;;;;;;;14.52;45.25;97522.34;4898624;29;20571;-73
2021/10/22 09:12:56;;;;;;;11.48;3.40;;;;;;;14.42;45.24;97506.53;4898557;29;20058;-79
2021/10/22 09:15:26;;;;;;;11.50;3.03;;;;;;;14.50;45.46;97521.88;4899241;29;20051;-88
2021/10/22 09:17:57;;;;;;;13.95;3.35;;;;;;;14.58;44.75;97523.56;4897267;29;20083;-87
2021/10/22 09:20:25;;;;;;;10.55;2.58;;;;;;;14.60;45.02;97526.69;4898721;29;20044;-73
2021/10/22 09:22:58;;;;;;;16.05;2.70;;;;;;;14.55;44.99;97507.81;4898461;29;20036;-83
2021/10/22 09:25:27;;;;;;;8.93;3.00;;;;;;;14.53;44.24;97518.41;4898792;29;20048;-75
2021/10/22 09:27:59;;;;;;;13.20;3.03;;;;;;;14.46;44.83;97510.09;4898660;29;20036;-73
2021/10/22 09:30:50;;;;;;;15.35;2.88;;;;;;;14.41;45.06;97526.94;4898193;29;20048;-84
2021/10/22 09:33:21;;;;;;;12.82;2.60;;;;;;;14.35;45.02;97518.25;4898382;29;20063;-74
2021/10/22 09:35:54;;;;;;;16.35;2.88;;;;;;;14.32;45.63;97527.28;4898357;29;20052;-85
2021/10/22 09:38:29;;;;;;;6.95;2.63;;;;;;;14.30;45.32;97540.59;4898528;29;20155;-86
2021/10/22 09:40:58;;;;;;;8.07;2.55;;;;;;;14.32;45.29;97541.00;4897357;29;20048;-84
2021/10/22 09:43:26;;;;;;;9.55;2.97;;;;;;;14.43;45.86;97524.59;4898569;29;20091;-75
2021/10/22 09:46:15;;;;;;;13.68;3.83;;;;;;;14.53;46.13;97523.91;4897973;29;20080;-86
2021/10/22 09:48:46;;;;;;;12.60;3.50;;;;;;;14.58;45.11;97515.31;4898220;29;20036;-74
2021/10/22 09:51:26;;;;;;;8.93;3.10;;;;;;;14.51;45.07;97516.06;4898033;29;20052;-74
2021/10/22 09:54:01;;;;;;;13.27;3.42;;;;;;;14.51;44.83;97512.50;4898160;29;20040;-86
2021/10/22 09:56:29;;;;;;;10.65;3.65;;;;;;;14.56;45.35;97509.38;4898160;29;20041;-73
2021/10/22 09:59:04;;;;;;;6.60;2.65;;;;;;;14.54;43.84;97500.75;4898021;29;20532;-73
2021/10/22 10:01:41;;;;;;;10.73;2.80;;;;;;;14.51;43.70;97513.31;4896217;29;20036;-73
2021/10/22 10:04:11;;;;;;;9.63;2.60;;;;;;;14.47;44.24;97501.47;4897677;29;20060;-75
2021/10/22 10:06:39;;;;;;;7.55;2.70;;;;;;;14.43;44.11;97519.09;4897609;29;20040;-74
2021/10/22 10:09:08;;;;;;;9.45;2.60;;;;;;;14.36;44.49;97510.81;4897476;29;20045;-73
2021/10/22 10:11:36;;;;;;;11.48;2.47;;;;;;;14.39;44.29;97513.56;4897779;29;20482;-77
2021/10/22 10:14:03;;;;;;;8.93;3.15;;;;;;;14.49;44.75;97528.56;4897444;29;20511;-82
2021/10/22 10:16:30;;;;;;;9.02;2.55;;;;;;;14.53;44.19;97518.41;4898250;29;20052;-81
2021/10/22 10:19:16;;;;;;;11.98;3.60;;;;;;;14.66;43.47;97522.41;4898038;29;20387;-74
2021/10/22 10:21:47;;;;;;;9.05;2.85;;;;;;;14.66;42.73;97527.13;4898375;29;20112;-88
2021/10/22 10:24:16;;;;;;;12.25;3.25;;;;;;;14.67;42.67;97503.94;4898265;29;20040;-87
2021/10/22 10:26:42;;;;;;;12.43;2.88;;;;;;;14.69;42.55;97521.66;4897246;29;20053;-74
2021/10/22 10:29:28;;;;;;;10.38;3.53;;;;;;;14.69;42.11;97524.41;4897544;29;20040;-87
2021/10/22 10:32:03;;;;;;;10.27;2.65;;;;;;;14.63;41.50;97514.16;4897531;29;20052;-82
2021/10/22 10:34:37;;;;;;;10.77;3.25;;;;;;;14.59;40.68;97514.13;4897402;29;20048;-74
2021/10/22 10:37:19;;;;;;;19.88;3.47;;;;;;;14.53;41.33;97508.19;4897046;29;20474;-85
2021/10/22 10:39:49;;;;;;;7.82;2.75;;;;;;;14.52;41.54;97522.34;4897154;29;20053;-85
2021/10/22 10:42:35;;;;;;;10.32;2.15;;;;;;;14.43;40.96;97508.88;4897283;29;20059;-81
2021/10/22 10:45:26;;;;;;;6.45;2.20;;;;;;;14.40;41.26;97528.09;4897225;29;20046;-86
2021/10/22 10:47:56;;;;;;;12.70;3.15;;;;;;;14.42;41.84;97532.06;4895891;29;20045;-80
2021/10/22 10:50:37;;;;;;;7.00;2.00;;;;;;;14.30;41.16;97513.91;4892218;29;20812;-77
2021/10/22 10:53:05;;;;;;;12.73;2.45;;;;;;;14.35;41.78;97521.00;4895296;29;20047;-72
2021/10/22 10:55:37;;;;;;;12.52;2.35;;;;;;;14.34;41.92;97530.44;4898628;29;20536;-74
2021/10/22 10:58:09;;;;;;;9.80;2.05;;;;;;;14.27;41.50;97560.59;4912456;29;20502;-74
2021/10/22 11:00:52;;;;;;;11.77;2.25;;;;;;;14.16;43.07;97574.25;4898484;29;20411;-73
2021/10/22 11:03:23;;;;;;;9.07;2.08;;;;;;;13.81;46.02;97654.34;4894202;29;20052;-73
2021/10/22 11:05:53;;;;;;;37.83;2.00;;;;;;;12.26;52.29;97672.44;4907009;29;20088;-74
2021/10/22 11:08:26;;;;;;;12.27;1.50;;;;;;;11.33;59.94;97728.00;4910161;29;20078;-74
2021/10/22 11:11:13;;;;;;;9.00;1.30;;;;;;;10.31;64.59;97768.84;4911147;29;20449;-72
2021/10/22 11:13:50;;;;;;;9.43;1.85;;;;;;;9.93;65.99;97781.00;4902174;29;20040;-77
2021/10/22 11:16:24;;;;;;;5.97;1.38;;;;;;;9.70;68.22;97763.56;4910974;29;20054;-72
2021/10/22 11:19:00;;;;;;;7.38;1.30;;;;;;;9.51;68.08;97784.06;4910793;29;20509;-72
2021/10/22 11:21:28;;;;;;;;;;;;;;;9.43;69.30;97790.41;4911175;29;20044;-74
2021/10/22 11:23:55;;;;;;;;;;;;;;;9.36;70.35;97765.66;4911041;29;20299;-72
2021/10/22 11:26:21;;;;;;;3.45;1.38;;;;;;;9.25;70.62;97740.00;4908767;29;19982;-73
2021/10/22 11:28:53;;;;;;;6.75;1.98;;;;;;;9.39;70.41;97770.44;4910083;29;20799;-73
2021/10/22 11:31:44;;;;;;;6.78;2.05;;;;;;;9.32;70.15;97754.66;4909979;29;20429;-81
2021/10/22 11:34:21;;;;;;;27.27;4.68;;;;;;;9.37;69.60;97770.78;4909817;29;20047;-73
2021/10/22 11:37:00;;;;;;;32.10;8.98;;;;;;;9.39;70.29;97762.25;4908405;29;20039;-73
2021/10/22 11:39:34;;;;;;;20.40;5.28;;;;;;;9.38;67.67;97766.91;4909164;29;20040;-73
2021/10/22 11:42:27;;;;;;;12.45;3.95;;;;;;;9.34;67.20;97757.06;4908270;29;20119;-73